Time;durP1;ratioP1;P1;durP2;ratioP2;P2;SDS_P1;SDS_P2;PMS_P1;PMS_P2;Temp;Humidity;BMP_temperature;BMP_pressure;BME280_temperature;BME280_humidity;BME280_pressure;Samples;Min_cycle;Max_cycle;Signal;HPM_P1;HPM_P2
2023/12/09 00:08:08;;;;;;;44.70;23.87;;;;;;;7.75;88.73;100474.75;5055372;28;20676;-68
2023/12/09 00:13:39;;;;;;;42.47;23.37;;;;;;;7.66;88.95;100457.03;5055594;28;20656;-67
2023/12/09 00:16:13;;;;;;;44.40;24.33;;;;;;;7.64;89.21;100464.28;5056690;28;20215;-67
2023/12/09 00:24:39;;;;;;;40.73;23.43;;;;;;;7.77;89.13;100480.72;5058965;28;20707;-66
2023/12/09 00:42:53;;;;;;;34.93;21.27;;;;;;;7.80;88.83;100474.38;5058293;28;20257;-68
2023/12/09 00:45:35;;;;;;;40.10;22.97;;;;;;;7.76;88.73;100476.41;5056734;28;20242;-68
2023/12/09 01:12:10;;;;;;;34.43;21.10;;;;;;;7.80;88.52;100490.19;5056343;28;20214;-68
2023/12/09 01:23:42;;;;;;;43.97;23.03;;;;;;;7.38;92.39;100503.41;5061232;28;20226;-67
2023/12/09 01:26:22;;;;;;;43.73;22.93;;;;;;;7.29;93.70;100500.69;5062923;28;20296;-67
2023/12/09 01:32:02;;;;;;;39.90;22.43;;;;;;;7.37;93.40;100504.34;5062217;28;20373;-67
2023/12/09 01:34:30;;;;;;;42.20;23.47;;;;;;;7.45;92.95;100514.28;5046752;28;20223;-67
2023/12/09 01:36:59;;;;;;;41.87;22.40;;;;;;;7.52;92.62;100525.97;5052246;28;20318;-68
2023/12/09 01:52:43;;;;;;;39.50;22.40;;;;;;;7.44;93.63;100517.88;5063051;28;20250;-67
2023/12/09 02:01:10;;;;;;;37.33;20.67;;;;;;;7.64;92.22;100513.56;5060282;28;20210;-66
2023/12/09 02:03:59;;;;;;;38.83;21.30;;;;;;;7.64;91.82;100506.50;5057817;28;20337;-70
2023/12/09 02:06:34;;;;;;;33.07;19.50;;;;;;;7.73;91.87;100516.28;5059755;28;20283;-67
2023/12/09 02:12:07;;;;;;;32.53;20.63;;;;;;;7.80;91.03;100522.72;5059199;28;20909;-68
2023/12/09 02:17:53;;;;;;;30.97;19.13;;;;;;;7.86;90.19;100522.19;5063842;28;20715;-69
2023/12/09 02:23:28;;;;;;;34.90;20.67;;;;;;;7.87;90.13;100499.28;5055023;28;20199;-67
2023/12/09 02:35:22;;;;;;;33.83;19.90;;;;;;;7.80;91.26;100480.47;5054253;28;20211;-67
2023/12/09 02:44:13;;;;;;;34.53;19.73;;;;;;;7.78;90.75;100463.94;5042664;28;20214;-67
2023/12/09 02:49:57;;;;;;;32.67;20.30;;;;;;;7.76;90.44;100457.09;5060282;28;20297;-67
2023/12/09 03:04:38;;;;;;;36.93;20.63;;;;;;;7.51;94.53;100414.31;5058766;28;20206;-67
2023/12/09 03:16:09;;;;;;;37.23;20.77;;;;;;;7.33;97.72;100410.59;5057878;28;20298;-66
2023/12/09 03:18:39;;;;;;;38.73;22.67;;;;;;;7.33;98.41;100409.75;5058547;28;20207;-68
2023/12/09 03:21:52;;;;;;;41.07;21.70;;;;;;;7.32;99.38;100405.44;5054720;28;20207;-68
2023/12/09 03:25:01;;;;;;;33.67;20.03;;;;;;;7.28;100.00;100407.53;5059153;28;20211;-70
2023/12/09 03:28:15;;;;;;;38.33;22.17;;;;;;;7.24;100.00;100406.09;5049730;28;20314;-69
2023/12/09 03:34:16;;;;;;;36.97;20.03;;;;;;;7.31;100.00;100406.41;5058540;28;20217;-67
2023/12/09 03:46:09;;;;;;;38.40;20.70;;;;;;;7.56;100.00;100411.31;5056129;28;20278;-66
2023/12/09 03:48:52;;;;;;;35.23;20.90;;;;;;;7.54;100.00;100402.69;5047846;28;20799;-67
2023/12/09 03:51:36;;;;;;;33.80;21.03;;;;;;;7.54;100.00;100414.06;5056892;28;20676;-68
2023/12/09 03:54:21;;;;;;;36.30;21.67;;;;;;;7.53;100.00;100406.28;5032325;28;20254;-68
2023/12/09 03:56:53;;;;;;;34.33;20.87;;;;;;;7.59;100.00;100402.28;5058415;28;20227;-68
2023/12/09 04:05:43;;;;;;;31.07;20.27;;;;;;;7.90;99.83;100403.97;5056644;28;20206;-67
2023/12/09 04:17:07;;;;;;;36.10;21.20;;;;;;;7.71;100.00;100410.00;5056896;28;20226;-67
2023/12/09 04:22:51;;;;;;;34.27;21.53;;;;;;;7.74;100.00;100404.44;5057460;28;20598;-67
2023/12/09 04:25:52;;;;;;;36.53;22.03;;;;;;;7.65;100.00;100399.94;5044242;28;20351;-70
2023/12/09 04:28:24;;;;;;;40.17;22.23;;;;;;;7.64;100.00;100408.84;5042178;28;20287;-67
2023/12/09 04:31:24;;;;;;;45.53;23.23;;;;;;;7.66;100.00;100400.78;5062005;28;20215;-67
2023/12/09 04:40:17;;;;;;;34.83;21.87;;;;;;;7.74;100.00;100393.88;5057308;28;20222;-68
2023/12/09 04:48:54;;;;;;;30.23;19.00;;;;;;;8.03;100.00;100393.16;5057086;28;20246;-68
2023/12/09 04:55:44;;;;;;;30.90;19.37;;;;;;;8.18;98.24;100381.28;5058659;28;20210;-67
2023/12/09 04:59:04;;;;;;;25.67;16.97;;;;;;;8.21;97.22;100375.72;5055788;28;20364;-67
2023/12/09 05:04:57;;;;;;;31.07;17.37;;;;;;;8.10;96.26;100367.88;5056488;28;20657;-68
2023/12/09 05:07:37;;;;;;;27.10;16.73;;;;;;;8.03;96.21;100364.97;5057858;28;20313;-67
2023/12/09 05:10:21;;;;;;;31.90;18.30;;;;;;;7.98;96.09;100363.69;5056111;28;20657;-67
2023/12/09 05:16:19;;;;;;;28.53;17.40;;;;;;;7.85;97.46;100367.41;5057591;28;20264;-68
2023/12/09 05:19:08;;;;;;;35.07;17.53;;;;;;;7.82;97.65;100359.75;5057655;28;20253;-68
2023/12/09 05:21:46;;;;;;;34.57;18.17;;;;;;;7.79;97.83;100354.75;5055134;28;20214;-67
2023/12/09 05:24:30;;;;;;;37.30;18.13;;;;;;;7.83;97.80;100355.28;5040091;28;20605;-68
2023/12/09 05:27:15;;;;;;;28.07;17.43;;;;;;;7.80;97.86;100351.13;5057355;28;20554;-67
2023/12/09 05:29:57;;;;;;;29.40;17.00;;;;;;;7.78;98.33;100355.69;5041662;28;20214;-68
2023/12/09 05:32:26;;;;;;;38.30;18.67;;;;;;;7.71;98.99;100346.66;5058131;28;20210;-70
2023/12/09 05:35:05;;;;;;;29.77;17.23;;;;;;;7.71;99.37;100357.22;5059148;28;20314;-67
2023/12/09 05:37:37;;;;;;;31.77;18.90;;;;;;;7.77;99.40;100353.19;5060203;28;20214;-69
2023/12/09 05:40:10;;;;;;;36.57;18.03;;;;;;;7.77;99.01;100351.38;5059079;28;20290;-68
2023/12/09 05:42:39;;;;;;;29.37;17.33;;;;;;;7.79;98.89;100346.81;5056653;28;20286;-67
2023/12/09 05:45:20;;;;;;;29.57;17.70;;;;;;;7.81;98.40;100352.81;5060910;28;20217;-70
2023/12/09 05:47:49;;;;;;;30.43;17.87;;;;;;;7.79;98.66;100345.97;5056239;28;20231;-70
2023/12/09 05:53:31;;;;;;;26.50;16.13;;;;;;;7.69;99.02;100338.03;5056048;28;20218;-67
2023/12/09 05:56:06;;;;;;;29.30;16.33;;;;;;;7.71;99.03;100325.53;5056414;28;20202;-68
2023/12/09 05:58:36;;;;;;;29.43;16.30;;;;;;;7.68;99.05;100325.78;5076496;28;20265;-68
2023/12/09 06:01:19;;;;;;;28.93;16.10;;;;;;;7.69;99.13;100316.91;5054523;28;20208;-67
2023/12/09 06:03:48;;;;;;;26.20;14.70;;;;;;;7.66;99.34;100330.34;5057065;28;20216;-71
2023/12/09 06:06:19;;;;;;;26.80;15.20;;;;;;;7.65;99.58;100336.59;5059242;28;20218;-67
2023/12/09 06:08:49;;;;;;;31.87;15.20;;;;;;;7.60;99.79;100324.78;5061377;28;20202;-70
2023/12/09 06:11:19;;;;;;;30.20;14.70;;;;;;;7.56;100.00;100321.59;5061234;28;20213;-68
2023/12/09 06:14:04;;;;;;;29.57;15.63;;;;;;;7.55;100.00;100326.03;5059874;28;20203;-67
2023/12/09 06:23:33;;;;;;;27.83;15.27;;;;;;;7.63;100.00;100324.53;5053944;28;20257;-67
2023/12/09 06:26:22;;;;;;;32.37;15.07;;;;;;;7.74;100.00;100319.97;5059567;28;20202;-68
2023/12/09 06:29:02;;;;;;;30.83;15.17;;;;;;;7.78;99.39;100321.38;5052537;28;20208;-67
2023/12/09 06:31:45;;;;;;;24.80;12.90;;;;;;;7.80;98.91;100313.34;5060785;28;20227;-70
2023/12/09 06:40:06;;;;;;;30.17;13.80;;;;;;;7.67;99.10;100292.44;5060080;28;20741;-67
2023/12/09 06:43:11;;;;;;;26.63;12.70;;;;;;;7.63;99.52;100296.34;5058654;28;20325;-68
2023/12/09 06:46:26;;;;;;;27.23;13.27;;;;;;;7.65;100.00;100304.94;5057217;28;20298;-68
2023/12/09 06:49:01;;;;;;;31.73;14.90;;;;;;;7.68;100.00;100291.47;5053865;28;20653;-67
2023/12/09 06:55:11;;;;;;;32.23;14.63;;;;;;;7.66;100.00;100290.78;5059211;28;21172;-68
2023/12/09 06:58:05;;;;;;;33.93;14.87;;;;;;;7.71;100.00;100293.03;5059371;28;20302;-69
2023/12/09 07:00:43;;;;;;;32.53;15.70;;;;;;;7.68;100.00;100295.91;5058794;28;20239;-71
2023/12/09 07:03:13;;;;;;;31.60;14.97;;;;;;;7.69;100.00;100301.06;5058058;28;20291;-68
2023/12/09 07:05:41;;;;;;;29.67;15.00;;;;;;;7.73;100.00;100306.94;5056891;28;20917;-67
2023/12/09 07:08:10;;;;;;;30.83;15.10;;;;;;;7.71;100.00;100308.88;5059484;28;20240;-68
2023/12/09 07:10:38;;;;;;;30.33;15.93;;;;;;;7.71;100.00;100314.13;5059202;28;20716;-65
2023/12/09 07:13:06;;;;;;;29.90;14.97;;;;;;;7.68;100.00;100303.84;5060211;28;21306;-69
2023/12/09 07:15:34;;;;;;;29.30;15.60;;;;;;;7.78;100.00;100310.81;5057877;28;20208;-70
2023/12/09 08:03:47;;;;;;;28.83;16.43;;;;;;;7.90;100.00;100288.66;4853000;29;20312;-70
2023/12/09 08:57:41;;;;;;;;;;;;;;;;;;;;;
2023/12/09 11:40:08;;;;;;;21.07;10.23;;;;;;;9.03;94.05;99908.13;4943453;28;20217;-71
2023/12/09 11:47:17;;;;;;;19.67;9.27;;;;;;;9.09;93.36;99904.84;4954277;28;20927;-73
2023/12/09 12:36:33;;;;;;;17.67;7.23;;;;;;;9.15;94.72;99763.25;4907683;29;20211;-70
2023/12/09 14:17:29;;;;;;;9.57;4.53;;;;;;;8.88;100.00;99474.22;4997627;28;20206;-69
2023/12/09 14:20:52;;;;;;;9.70;4.13;;;;;;;8.85;100.00;99458.69;4998024;28;20203;-70
2023/12/09 14:23:42;;;;;;;16.40;5.00;;;;;;;8.86;100.00;99447.13;4988528;28;20216;-70
2023/12/09 14:26:28;;;;;;;;;;;;;;;;;;;;;
2023/12/09 14:29:06;;;;;;;11.37;4.40;;;;;;;8.82;100.00;99429.94;4993753;28;20249;-71
2023/12/09 14:35:09;;;;;;;11.87;4.83;;;;;;;8.76;100.00;99413.91;4999678;28;20211;-70
2023/12/09 14:37:42;;;;;;;14.90;4.37;;;;;;;8.79;100.00;99406.47;4997434;28;20717;-69
2023/12/09 14:40:22;;;;;;;15.40;4.33;;;;;;;8.78;100.00;99393.41;4997530;28;20214;-70
2023/12/09 14:42:55;;;;;;;12.07;4.57;;;;;;;8.82;100.00;99384.16;4999359;28;20723;-74
2023/12/09 14:45:37;;;;;;;13.80;3.97;;;;;;;8.76;100.00;99382.19;4997150;28;20215;-72
2023/12/09 14:48:07;;;;;;;13.13;4.03;;;;;;;8.70;100.00;99373.09;4995362;28;20286;-70
2023/12/09 14:50:37;;;;;;;10.60;4.17;;;;;;;8.71;100.00;99369.44;4998303;28;20639;-68
2023/12/09 14:53:06;;;;;;;10.77;4.23;;;;;;;8.73;100.00;99372.75;4997443;28;20201;-69
2023/12/09 14:55:34;;;;;;;9.50;4.30;;;;;;;8.64;100.00;99358.69;4995075;28;20213;-70
2023/12/09 14:58:02;;;;;;;9.57;4.10;;;;;;;8.65;100.00;99344.50;4997873;28;20656;-70
2023/12/09 15:00:31;;;;;;;14.80;4.13;;;;;;;8.70;100.00;99340.56;4998307;28;20209;-71
2023/12/09 15:03:00;;;;;;;10.33;4.30;;;;;;;8.67;100.00;99328.47;4998642;28;20215;-70
2023/12/09 15:05:28;;;;;;;12.10;4.53;;;;;;;8.67;100.00;99321.38;5001636;28;20336;-68
2023/12/09 15:07:59;;;;;;;10.83;4.20;;;;;;;8.67;100.00;99312.63;4997216;28;20223;-71
2023/12/09 15:10:27;;;;;;;10.63;5.37;;;;;;;8.64;100.00;99300.56;4998688;28;20813;-68
2023/12/09 15:12:55;;;;;;;12.07;4.70;;;;;;;8.66;100.00;99284.53;4998352;28;20281;-72
2023/12/09 15:15:24;;;;;;;11.63;4.50;;;;;;;8.70;100.00;99277.97;4999569;28;20221;-69
2023/12/09 15:18:01;;;;;;;6.50;3.17;;;;;;;8.60;100.00;99272.84;4996850;28;20202;-71
2023/12/09 15:20:29;;;;;;;7.50;3.33;;;;;;;8.55;100.00;99267.19;5000300;28;20248;-69
2023/12/09 15:23:00;;;;;;;9.27;2.83;;;;;;;8.56;100.00;99262.75;4994587;28;20199;-70
2023/12/09 15:25:39;;;;;;;6.13;2.30;;;;;;;8.62;99.81;99268.19;4994881;28;20428;-70
2023/12/09 15:28:11;;;;;;;6.87;2.33;;;;;;;8.56;99.33;99257.44;4998255;28;20224;-68
2023/12/09 15:30:40;;;;;;;9.63;2.67;;;;;;;8.52;99.85;99249.03;4999474;28;20245;-70
2023/12/09 15:33:13;;;;;;;5.13;2.13;;;;;;;8.55;99.06;99237.31;4998600;28;20213;-73
2023/12/09 15:35:41;;;;;;;10.27;2.90;;;;;;;8.54;99.46;99225.91;4999032;28;20501;-71
2023/12/09 15:38:11;;;;;;;6.23;2.20;;;;;;;8.57;97.73;99225.59;4997814;28;20437;-68
2023/12/09 15:40:39;;;;;;;5.07;1.97;;;;;;;8.58;96.76;99211.38;4994957;28;20258;-69
2023/12/09 15:43:08;;;;;;;5.00;1.87;;;;;;;8.52;96.43;99195.38;4995836;28;20257;-69
2023/12/09 15:45:40;;;;;;;4.17;1.77;;;;;;;8.58;94.14;99182.31;4994832;28;20811;-69
2023/12/09 15:48:12;;;;;;;17.17;1.90;;;;;;;8.60;92.81;99175.06;4997135;28;20220;-69
2023/12/09 15:50:43;;;;;;;7.30;2.07;;;;;;;8.57;91.77;99156.06;4993384;28;20910;-69
2023/12/09 15:53:14;;;;;;;6.80;1.43;;;;;;;8.56;91.69;99149.94;4997659;28;20213;-70
2023/12/09 15:55:42;;;;;;;3.50;1.10;;;;;;;8.51;91.65;99135.59;4996219;28;20272;-70
2023/12/09 15:58:13;;;;;;;6.50;1.87;;;;;;;8.54;91.55;99133.44;4986544;28;20396;-69
2023/12/09 16:00:44;;;;;;;7.63;1.70;;;;;;;8.57;91.07;99129.66;5000521;28;20257;-74
2023/12/09 16:03:15;;;;;;;2.63;1.10;;;;;;;8.48;91.62;99109.50;4998460;28;20815;-71
2023/12/09 16:05:47;;;;;;;5.40;1.40;;;;;;;8.52;90.73;99111.66;4996932;28;20221;-70
2023/12/09 16:08:17;;;;;;;4.57;1.40;;;;;;;8.49;91.25;99084.75;4997186;28;20281;-71
2023/12/09 16:10:45;;;;;;;4.87;1.30;;;;;;;8.44;91.42;99077.34;4993646;28;20221;-70
2023/12/09 16:13:15;;;;;;;3.27;1.07;;;;;;;8.42;91.43;99075.84;4996752;28;20240;-69
2023/12/09 16:15:44;;;;;;;2.93;0.90;;;;;;;8.38;91.20;99080.63;4991992;28;20610;-66
2023/12/09 16:18:13;;;;;;;4.33;1.07;;;;;;;8.41;90.90;99056.53;4994351;28;20433;-68
2023/12/09 16:20:41;;;;;;;3.20;0.90;;;;;;;8.41;90.81;99067.09;4995749;28;20403;-71
2023/12/09 16:23:13;;;;;;;4.90;1.40;;;;;;;8.33;91.54;99061.84;4995749;28;20604;-68
2023/12/09 16:25:43;;;;;;;3.20;0.93;;;;;;;8.34;91.53;99066.13;4995569;28;20205;-68
2023/12/09 16:28:13;;;;;;;3.23;0.90;;;;;;;8.35;90.92;99049.28;4995506;28;20248;-69
2023/12/09 16:30:42;;;;;;;5.43;1.33;;;;;;;8.38;90.56;99050.75;4994432;28;20237;-70
2023/12/09 16:33:10;;;;;;;5.67;1.20;;;;;;;8.45;90.14;99047.28;4997083;28;20206;-69
2023/12/09 16:35:49;;;;;;;3.00;1.33;;;;;;;8.41;89.78;99045.97;4997100;28;20201;-71
2023/12/09 16:38:17;;;;;;;4.23;1.40;;;;;;;8.42;89.91;99041.50;4995996;28;20210;-72
2023/12/09 16:40:47;;;;;;;4.57;2.00;;;;;;;8.47;90.13;99016.22;4998965;28;20214;-69
2023/12/09 16:43:18;;;;;;;4.30;1.20;;;;;;;8.48;89.48;99009.97;4999613;28;20248;-72
2023/12/09 16:45:48;;;;;;;2.50;1.10;;;;;;;8.51;89.00;98998.25;4995440;28;20194;-68
2023/12/09 16:48:17;;;;;;;4.87;1.37;;;;;;;8.49;89.48;98985.19;4996158;28;20381;-72
2023/12/09 16:50:49;;;;;;;3.93;1.20;;;;;;;8.46;89.65;98972.31;5000902;28;20244;-72
2023/12/09 16:53:22;;;;;;;6.50;1.20;;;;;;;8.48;89.43;98967.69;4992334;28;20244;-69
2023/12/09 16:55:55;;;;;;;3.03;1.03;;;;;;;8.49;89.44;98953.50;4993677;28;20715;-68
2023/12/09 16:58:24;;;;;;;3.37;1.30;;;;;;;8.46;89.46;98940.63;4996463;28;20202;-68
2023/12/09 17:00:52;;;;;;;5.60;1.30;;;;;;;8.47;89.37;98934.34;4998587;28;20242;-68
2023/12/09 17:03:20;;;;;;;3.03;1.27;;;;;;;8.49;90.13;98935.00;4995552;28;20675;-70
2023/12/09 17:05:53;;;;;;;9.33;1.20;;;;;;;8.49;90.57;98921.78;4995557;28;20233;-70
2023/12/09 17:08:27;;;;;;;5.63;1.67;;;;;;;8.49;91.00;98932.34;4997032;28;20276;-71
2023/12/09 17:11:14;;;;;;;5.60;1.37;;;;;;;8.52;91.46;98915.34;4992906;28;20236;-68
2023/12/09 17:13:42;;;;;;;3.87;1.37;;;;;;;8.50;92.03;98917.34;4997913;28;20224;-68
2023/12/09 17:16:14;;;;;;;5.93;1.63;;;;;;;8.46;93.19;98898.34;4994561;28;20659;-69
2023/12/09 17:18:44;;;;;;;4.67;1.50;;;;;;;8.47;93.20;98902.66;4992024;28;20595;-68
2023/12/09 17:21:20;;;;;;;6.10;2.00;;;;;;;8.49;93.43;98898.03;4994723;28;21652;-69
2023/12/09 17:23:51;;;;;;;6.13;2.13;;;;;;;8.47;93.53;98897.38;4993785;28;20205;-71
2023/12/09 17:26:22;;;;;;;3.53;2.00;;;;;;;8.43;94.59;98906.63;4993563;28;20689;-71
2023/12/09 17:28:50;;;;;;;4.83;1.83;;;;;;;8.43;95.29;98914.56;4997477;28;20210;-71
2023/12/09 17:31:18;;;;;;;5.43;2.00;;;;;;;8.39;96.01;98900.03;4999180;28;20352;-69
2023/12/09 17:33:46;;;;;;;4.87;2.60;;;;;;;8.37;97.11;98888.00;4995637;28;20206;-68
2023/12/09 17:36:15;;;;;;;7.37;3.23;;;;;;;8.40;97.72;98901.69;4996063;28;20216;-68
2023/12/09 17:38:44;;;;;;;5.10;2.70;;;;;;;8.40;97.57;98899.06;4997029;28;20712;-67
2023/12/09 17:41:12;;;;;;;5.73;2.60;;;;;;;8.37;98.17;98895.91;4996152;28;20212;-68
2023/12/09 17:43:43;;;;;;;5.60;3.17;;;;;;;8.37;98.10;98895.91;4994537;28;20227;-69
2023/12/09 17:46:12;;;;;;;7.87;3.27;;;;;;;8.33;98.61;98894.63;4995636;28;20206;-70
2023/12/09 17:48:40;;;;;;;9.37;3.20;;;;;;;8.34;98.80;98894.47;4994094;28;20890;-67
2023/12/09 17:51:20;;;;;;;8.17;2.93;;;;;;;8.33;98.83;98894.63;4992667;28;20275;-69
2023/12/09 17:53:48;;;;;;;4.80;2.83;;;;;;;8.26;100.00;98890.00;4996319;28;20209;-71
2023/12/09 17:56:17;;;;;;;5.93;2.90;;;;;;;8.23;100.00;98886.88;4994297;28;20202;-66
2023/12/09 17:58:47;;;;;;;5.13;2.80;;;;;;;8.24;100.00;98886.72;4996729;28;20453;-72
2023/12/09 18:01:16;;;;;;;4.60;2.40;;;;;;;8.23;100.00;98868.41;4996553;28;20205;-67
2023/12/09 18:03:55;;;;;;;7.40;2.77;;;;;;;8.21;100.00;98865.09;5001386;28;20218;-71
2023/12/09 18:06:23;;;;;;;5.33;2.40;;;;;;;8.21;100.00;98854.53;5004722;28;20210;-71
2023/12/09 18:08:54;;;;;;;7.40;2.50;;;;;;;8.18;100.00;98839.06;5000953;28;20222;-73
2023/12/09 18:11:25;;;;;;;13.37;2.53;;;;;;;8.15;100.00;98842.03;4998873;28;20617;-69
2023/12/09 18:13:55;;;;;;;7.50;2.90;;;;;;;8.12;100.00;98826.53;4997997;28;20213;-67
2023/12/09 18:16:43;;;;;;;6.83;2.40;;;;;;;8.07;100.00;98821.78;5000699;28;20206;-70
2023/12/09 18:19:12;;;;;;;8.83;2.60;;;;;;;8.06;100.00;98808.75;4997993;28;20692;-70
2023/12/09 18:21:43;;;;;;;7.73;2.63;;;;;;;8.07;100.00;98810.41;4998905;28;20756;-71
2023/12/09 18:24:14;;;;;;;8.57;3.13;;;;;;;8.07;100.00;98799.84;5006723;28;20200;-74
2023/12/09 18:26:42;;;;;;;5.03;2.87;;;;;;;8.08;100.00;98799.66;4998011;28;20212;-76
2023/12/09 18:29:11;;;;;;;6.73;2.67;;;;;;;8.05;100.00;98796.53;4999869;28;20205;-71
2023/12/09 18:31:39;;;;;;;7.97;2.70;;;;;;;8.08;100.00;98786.47;4998024;28;20243;-73
2023/12/09 18:34:11;;;;;;;5.10;2.70;;;;;;;8.02;100.00;98778.41;4998291;28;20217;-70
2023/12/09 18:36:43;;;;;;;9.60;2.90;;;;;;;8.03;100.00;98774.78;4999488;28;20667;-72
2023/12/09 18:39:21;;;;;;;8.83;2.90;;;;;;;8.04;100.00;98765.84;4997926;28;20405;-68
2023/12/09 18:41:57;;;;;;;5.83;2.77;;;;;;;8.03;100.00;98756.28;4996875;28;20319;-67
2023/12/09 18:44:30;;;;;;;4.30;2.20;;;;;;;8.03;100.00;98745.72;4998505;28;20296;-68
2023/12/09 18:47:01;;;;;;;6.20;2.70;;;;;;;8.00;100.00;98756.66;4995369;28;20221;-68
2023/12/09 18:49:34;;;;;;;8.73;2.80;;;;;;;7.99;100.00;98755.00;4996544;28;20210;-68
2023/12/09 18:52:05;;;;;;;6.93;2.60;;;;;;;8.01;100.00;98764.38;4995440;28;20214;-69
2023/12/09 18:54:33;;;;;;;4.10;2.53;;;;;;;8.02;100.00;98770.47;4995459;28;20208;-66
2023/12/09 18:57:01;;;;;;;4.17;2.30;;;;;;;8.07;100.00;98784.00;4994962;28;20217;-66
2023/12/09 18:59:30;;;;;;;4.50;2.57;;;;;;;8.10;100.00;98783.63;4996258;28;20210;-65
2023/12/09 19:01:58;;;;;;;4.57;2.43;;;;;;;8.08;100.00;98783.84;4997004;28;20319;-65
2023/12/09 19:04:42;;;;;;;5.20;2.10;;;;;;;8.12;100.00;98774.56;4995486;28;20225;-69
2023/12/09 19:07:14;;;;;;;7.40;2.33;;;;;;;8.14;100.00;98763.81;4995006;28;20194;-68
2023/12/09 19:09:44;;;;;;;4.87;2.30;;;;;;;8.08;100.00;98759.25;4997248;28;20212;-72
2023/12/09 19:12:14;;;;;;;5.03;2.10;;;;;;;8.07;100.00;98773.44;4991469;28;20236;-71
2023/12/09 19:15:02;;;;;;;5.37;2.20;;;;;;;8.01;100.00;98759.09;4997181;28;20209;-68
2023/12/09 19:17:33;;;;;;;3.70;2.17;;;;;;;8.07;100.00;98757.59;4995719;28;20332;-72
2023/12/09 19:20:04;;;;;;;5.10;2.20;;;;;;;8.09;100.00;98755.63;4995036;28;20213;-67
2023/12/09 19:22:35;;;;;;;4.53;2.33;;;;;;;8.05;100.00;98755.13;4996786;28;20201;-69
2023/12/09 19:25:07;;;;;;;3.87;2.27;;;;;;;8.04;100.00;98756.13;4994425;28;20210;-71
2023/12/09 19:27:39;;;;;;;4.53;2.17;;;;;;;8.05;100.00;98754.31;4994104;28;20667;-68
2023/12/09 19:30:24;;;;;;;3.57;2.00;;;;;;;8.09;100.00;98739.78;4995138;28;20233;-69
2023/12/09 19:33:00;;;;;;;4.90;2.20;;;;;;;8.10;100.00;98736.94;4997680;28;20206;-69
2023/12/09 19:35:28;;;;;;;5.50;2.60;;;;;;;8.03;100.00;98735.19;4993885;28;21016;-69
2023/12/09 19:37:57;;;;;;;4.90;2.57;;;;;;;8.08;100.00;98725.75;4994014;28;20791;-70
2023/12/09 19:40:24;;;;;;;7.37;3.03;;;;;;;8.12;100.00;98728.84;4993776;28;20298;-65
2023/12/09 19:42:55;;;;;;;7.00;3.60;;;;;;;8.12;100.00;98729.69;4996513;28;20265;-68
2023/12/09 19:45:25;;;;;;;5.03;2.63;;;;;;;8.14;100.00;98716.31;4994611;28;20220;-73
2023/12/09 19:47:54;;;;;;;6.47;2.47;;;;;;;8.19;100.00;98725.34;4995266;28;20260;-70
2023/12/09 19:50:23;;;;;;;5.27;2.80;;;;;;;8.17;100.00;98721.25;4997564;28;20227;-67
2023/12/09 19:52:52;;;;;;;4.87;2.70;;;;;;;8.21;100.00;98712.78;4995980;28;20226;-70
2023/12/09 19:55:20;;;;;;;5.10;2.10;;;;;;;8.19;100.00;98703.38;4995658;28;20205;-70
2023/12/09 19:57:48;;;;;;;3.83;2.20;;;;;;;8.21;100.00;98701.41;4996749;28;20197;-70
2023/12/09 20:00:24;;;;;;;4.73;2.47;;;;;;;8.24;100.00;98703.69;4996287;28;20209;-69
2023/12/09 20:02:58;;;;;;;4.80;2.50;;;;;;;8.27;100.00;98705.97;4993119;28;20201;-70
2023/12/09 20:05:26;;;;;;;4.93;2.60;;;;;;;8.30;100.00;98722.28;4993216;28;20214;-71
2023/12/09 20:07:54;;;;;;;4.83;2.60;;;;;;;8.29;100.00;98733.84;4996472;28;20667;-69
2023/12/09 20:10:22;;;;;;;4.30;2.43;;;;;;;8.32;100.00;98745.94;4995490;28;20291;-69
2023/12/09 20:12:50;;;;;;;5.20;2.60;;;;;;;8.37;100.00;98766.50;4993350;28;20626;-69
2023/12/09 20:15:19;;;;;;;6.03;3.17;;;;;;;8.46;100.00;98771.56;4993421;28;20620;-70
2023/12/09 20:17:49;;;;;;;5.00;2.67;;;;;;;8.50;100.00;98774.69;4994819;28;21515;-70
2023/12/09 20:20:20;;;;;;;7.10;2.20;;;;;;;8.57;100.00;98754.50;4988961;28;20731;-66
2023/12/09 20:22:53;;;;;;;5.47;2.47;;;;;;;8.56;100.00;98772.16;4995276;28;20213;-71
2023/12/09 20:25:21;;;;;;;4.13;2.23;;;;;;;8.61;100.00;98775.13;4993306;28;20211;-68
2023/12/09 20:27:52;;;;;;;4.67;2.43;;;;;;;8.68;100.00;98799.81;4995194;28;20677;-70
2023/12/09 20:30:21;;;;;;;4.13;2.37;;;;;;;8.78;100.00;98802.22;4997604;28;20292;-68
2023/12/09 20:32:50;;;;;;;4.00;2.13;;;;;;;8.83;100.00;98813.09;4994778;28;20297;-67
2023/12/09 20:35:19;;;;;;;4.97;1.90;;;;;;;8.82;100.00;98818.53;4993420;28;20211;-72
2023/12/09 20:37:47;;;;;;;6.07;2.20;;;;;;;8.81;100.00;98827.47;4995414;28;20323;-71
2023/12/09 20:40:15;;;;;;;3.13;1.70;;;;;;;8.79;100.00;98835.59;4992697;28;20213;-70
2023/12/09 20:42:55;;;;;;;3.10;1.97;;;;;;;8.83;100.00;98846.63;4996188;28;20229;-72
2023/12/09 20:45:26;;;;;;;4.97;2.07;;;;;;;8.86;100.00;98862.13;4991281;28;20587;-71
2023/12/09 20:47:56;;;;;;;3.73;1.90;;;;;;;8.94;100.00;98859.44;4992515;28;20257;-70
2023/12/09 20:50:25;;;;;;;7.23;2.00;;;;;;;8.97;100.00;98873.09;4993500;28;20280;-69
2023/12/09 20:52:53;;;;;;;5.00;1.97;;;;;;;9.02;100.00;98872.59;4992332;28;20283;-72
2023/12/09 20:55:21;;;;;;;4.53;2.00;;;;;;;9.01;100.00;98884.16;4994935;28;20201;-69
2023/12/09 20:57:50;;;;;;;6.27;2.30;;;;;;;9.12;100.00;98875.81;4910669;28;68519;-68
2023/12/09 21:00:19;;;;;;;5.10;2.40;;;;;;;9.41;100.00;98891.75;4944265;28;20246;-72
2023/12/09 21:02:47;;;;;;;2.43;1.53;;;;;;;9.50;100.00;98892.50;4973918;28;20210;-70
2023/12/09 21:05:21;;;;;;;3.50;1.60;;;;;;;9.57;100.00;98914.63;4978511;28;20661;-70
2023/12/09 21:07:51;;;;;;;2.67;1.30;;;;;;;9.60;100.00;98908.94;4978225;28;20686;-69
2023/12/09 21:10:19;;;;;;;2.10;1.10;;;;;;;9.68;100.00;98923.94;4975945;28;20680;-72
2023/12/09 21:12:47;;;;;;;1.00;0.50;;;;;;;9.73;100.00;98929.53;4975924;28;21250;-70
2023/12/09 21:15:15;;;;;;;1.80;0.87;;;;;;;9.78;100.00;98940.38;4972336;28;20207;-70
2023/12/09 21:17:43;;;;;;;2.63;0.83;;;;;;;9.77;100.00;98949.31;4973699;28;20289;-68
2023/12/09 21:20:12;;;;;;;3.47;0.93;;;;;;;9.83;100.00;98953.91;4973667;28;20219;-68
2023/12/09 21:22:41;;;;;;;1.20;0.60;;;;;;;9.91;100.00;98950.38;4971908;28;20313;-69
2023/12/09 21:25:10;;;;;;;1.20;0.70;;;;;;;9.96;100.00;98961.22;4974896;28;20216;-70
2023/12/09 21:27:38;;;;;;;1.77;0.70;;;;;;;9.99;100.00;98969.63;4975776;28;20215;-68
2023/12/09 21:30:07;;;;;;;1.17;0.70;;;;;;;9.98;100.00;98968.00;4977052;28;20339;-70
2023/12/09 21:32:44;;;;;;;3.37;0.77;;;;;;;10.02;100.00;98987.81;4974738;28;20227;-69
2023/12/09 21:35:14;;;;;;;1.50;0.73;;;;;;;10.03;100.00;98997.38;4979363;28;20229;-70
2023/12/09 21:37:44;;;;;;;1.77;0.90;;;;;;;10.06;100.00;99002.34;4979541;28;20208;-70
2023/12/09 21:40:13;;;;;;;2.80;1.07;;;;;;;10.11;100.00;99010.56;4976104;28;20238;-69
2023/12/09 21:42:45;;;;;;;1.57;1.00;;;;;;;10.16;100.00;99010.84;4978695;28;20260;-68
2023/12/09 21:45:13;;;;;;;1.80;0.70;;;;;;;10.15;100.00;99006.56;4979564;28;20235;-70
2023/12/09 21:47:54;;;;;;;1.37;0.77;;;;;;;10.21;100.00;99020.09;4978979;28;20218;-68
2023/12/09 21:50:25;;;;;;;4.47;0.97;;;;;;;10.22;100.00;99024.38;4981200;28;20327;-70
2023/12/09 21:52:54;;;;;;;2.03;0.77;;;;;;;10.23;100.00;99039.28;4982108;28;20234;-69
2023/12/09 21:55:30;;;;;;;2.73;0.70;;;;;;;10.23;100.00;99055.19;4977464;28;20208;-70
2023/12/09 21:57:59;;;;;;;1.40;0.73;;;;;;;10.20;100.00;99060.84;4979749;28;20215;-69
2023/12/09 22:00:36;;;;;;;2.13;0.90;;;;;;;10.21;100.00;99067.78;4978728;28;20205;-69
2023/12/09 22:03:15;;;;;;;3.27;1.00;;;;;;;10.20;100.00;99071.44;4978951;28;20720;-67
2023/12/09 22:06:15;;;;;;;1.77;0.70;;;;;;;10.25;100.00;99071.72;4979067;28;20206;-70
2023/12/09 22:08:45;;;;;;;3.90;1.20;;;;;;;10.28;100.00;99068.72;4979868;28;20204;-68
2023/12/09 22:11:14;;;;;;;1.63;0.80;;;;;;;10.26;100.00;99076.84;4980762;28;20208;-67
2023/12/09 22:17:25;;;;;;;3.30;0.93;;;;;;;10.31;100.00;99089.53;4982249;28;21273;-71
2023/12/09 22:20:51;;;;;;;5.00;1.40;;;;;;;10.32;100.00;99099.13;4981122;28;20206;-69
2023/12/09 22:23:31;;;;;;;3.30;0.83;;;;;;;10.31;100.00;99100.97;4980807;28;20212;-68
2023/12/09 22:26:23;;;;;;;3.53;1.27;;;;;;;10.36;99.78;99117.16;4979312;28;20850;-69